Time;durP1;ratioP1;P1;durP2;ratioP2;P2;SDS_P1;SDS_P2;PMS_P1;PMS_P2;Temp;Humidity;BMP_temperature;BMP_pressure;BME280_temperature;BME280_humidity;BME280_pressure;Samples;Min_cycle;Max_cycle;Signal;HPM_P1;HPM_P2
2021/07/25 00:00:14;;;;;;;13.52;5.72;;;;;;;16.19;97.21;98622.81;5104840;28;20024;-66
2021/07/25 00:02:39;;;;;;;14.43;5.38;;;;;;;16.26;97.05;98630.47;5090541;28;20020;-66
2021/07/25 00:05:07;;;;;;;13.82;4.93;;;;;;;16.27;96.70;98632.22;5104109;28;20020;-66
2021/07/25 00:07:32;;;;;;;8.18;4.78;;;;;;;16.27;96.94;98626.91;5104272;28;20032;-66
2021/07/25 00:09:58;;;;;;;12.95;4.95;;;;;;;16.31;97.01;98649.75;5103038;28;20334;-66
2021/07/25 00:12:24;;;;;;;13.45;5.78;;;;;;;16.38;96.68;98655.66;5104364;28;20027;-66
2021/07/25 00:14:50;;;;;;;10.30;5.28;;;;;;;16.34;96.63;98660.25;5102931;28;20024;-66
2021/07/25 00:17:15;;;;;;;9.15;4.82;;;;;;;16.35;96.48;98664.63;5104528;28;20030;-66
2021/07/25 00:19:40;;;;;;;10.77;4.32;;;;;;;16.30;96.72;98668.41;5091223;28;20012;-66
2021/07/25 00:22:06;;;;;;;7.13;4.50;;;;;;;16.31;96.97;98676.31;5089748;28;20017;-66
2021/07/25 00:24:34;;;;;;;6.57;4.03;;;;;;;16.41;96.94;98693.59;5099817;28;20311;-65
2021/07/25 00:27:01;;;;;;;6.68;4.32;;;;;;;16.50;97.30;98695.91;5089607;28;20012;-65
2021/07/25 00:29:30;;;;;;;10.88;5.18;;;;;;;16.54;97.17;98705.47;5089607;28;20012;-65
2021/07/25 00:32:00;;;;;;;13.75;5.13;;;;;;;16.56;97.26;98708.94;5090755;28;20342;-65
2021/07/25 00:34:27;;;;;;;14.75;4.45;;;;;;;16.59;97.12;98682.22;5089817;28;20026;-65
2021/07/25 00:36:53;;;;;;;9.07;4.70;;;;;;;16.58;97.06;98680.47;5089983;28;20057;-65
2021/07/25 00:39:18;;;;;;;10.98;5.22;;;;;;;16.63;97.20;98682.94;5089360;28;20024;-65
2021/07/25 00:41:44;;;;;;;9.98;5.18;;;;;;;16.62;96.99;98676.78;5089395;28;20020;-65
2021/07/25 00:44:09;;;;;;;13.35;6.90;;;;;;;16.61;97.10;98696.28;5090534;28;20016;-65
2021/07/25 00:46:35;;;;;;;9.82;5.43;;;;;;;16.61;96.90;98712.25;5089235;28;20012;-65
2021/07/25 00:49:02;;;;;;;13.88;4.93;;;;;;;16.58;96.92;98716.84;5103452;28;20027;-65
2021/07/25 00:51:28;;;;;;;12.38;5.43;;;;;;;16.54;96.78;98733.81;5103857;28;20057;-65
2021/07/25 00:53:55;;;;;;;12.65;5.78;;;;;;;16.53;96.92;98746.25;5101013;28;20223;-65
2021/07/25 00:56:20;;;;;;;14.90;6.03;;;;;;;16.50;97.04;98749.03;5103501;28;20016;-65
2021/07/25 00:58:46;;;;;;;15.20;5.50;;;;;;;16.50;97.01;98751.69;5100459;28;20028;-65
2021/07/25 01:01:13;;;;;;;11.13;5.93;;;;;;;16.51;96.96;98774.66;5088955;28;20016;-65
2021/07/25 01:04:09;;;;;;;13.13;5.03;;;;;;;16.59;97.05;98793.84;5092225;28;20024;-65
2021/07/25 01:06:59;;;;;;;12.23;4.97;;;;;;;16.57;97.04;98798.34;5088861;28;20242;-65
2021/07/25 01:09:42;;;;;;;18.83;6.07;;;;;;;16.70;97.34;98811.97;5098539;28;20207;-65
2021/07/25 01:12:16;;;;;;;13.32;6.07;;;;;;;16.71;97.14;98814.56;5093829;28;20323;-65
2021/07/25 01:14:44;;;;;;;11.05;5.82;;;;;;;16.74;97.28;98819.75;5086465;28;20268;-65
2021/07/25 01:17:30;;;;;;;18.95;7.45;;;;;;;16.86;97.17;98840.53;5086431;28;20028;-65
2021/07/25 01:19:59;;;;;;;20.55;7.35;;;;;;;16.93;97.29;98835.84;5086370;28;20322;-65
2021/07/25 01:22:27;;;;;;;14.55;8.52;;;;;;;16.99;97.46;98803.66;5088594;28;20204;-65
2021/07/25 01:24:53;;;;;;;16.38;9.27;;;;;;;17.09;97.60;98792.56;5090124;28;20138;-65
2021/07/25 01:27:28;;;;;;;14.10;7.57;;;;;;;17.08;97.15;98782.88;5088609;28;20334;-65
2021/07/25 01:29:56;;;;;;;17.60;7.60;;;;;;;17.08;96.78;98771.34;5095802;28;20048;-65
2021/07/25 01:32:25;;;;;;;12.25;7.68;;;;;;;17.11;96.68;98777.41;5089133;28;20024;-65
2021/07/25 01:34:53;;;;;;;20.77;8.38;;;;;;;17.16;96.66;98775.44;5088331;28;20033;-65
2021/07/25 01:37:19;;;;;;;13.43;7.13;;;;;;;17.17;96.47;98766.53;5088356;28;20079;-65
2021/07/25 01:39:44;;;;;;;24.13;8.05;;;;;;;17.20;96.64;98773.50;5088344;28;20047;-65
2021/07/25 01:42:10;;;;;;;17.92;8.82;;;;;;;17.27;96.50;98771.44;5088265;28;20327;-65
2021/07/25 01:44:35;;;;;;;24.85;12.65;;;;;;;17.43;96.94;98772.53;5089257;28;20024;-65
2021/07/25 01:47:01;;;;;;;29.23;13.52;;;;;;;17.49;97.19;98769.59;5088246;28;20027;-65
2021/07/25 01:49:26;;;;;;;17.85;12.10;;;;;;;17.54;97.18;98762.25;5088162;28;20024;-65
2021/07/25 01:51:51;;;;;;;22.38;13.95;;;;;;;17.55;97.19;98878.41;5102264;28;20023;-66
2021/07/25 01:54:17;;;;;;;21.48;14.45;;;;;;;17.60;97.29;100223.59;5102558;28;20361;-66
2021/07/25 01:56:42;;;;;;;28.50;14.48;;;;;;;17.63;97.07;99028.91;5101175;28;20087;-66
2021/07/25 01:59:08;;;;;;;26.67;14.52;;;;;;;17.64;97.30;98915.28;5101298;28;20023;-66
2021/07/25 02:01:33;;;;;;;28.08;14.18;;;;;;;17.70;97.24;98957.63;5102485;28;20087;-66
2021/07/25 02:03:58;;;;;;;18.23;12.50;;;;;;;17.73;97.10;98962.81;5088344;28;20087;-66
2021/07/25 02:06:24;;;;;;;21.67;12.80;;;;;;;17.73;97.01;98930.88;5087568;28;20095;-65
2021/07/25 02:08:50;;;;;;;35.28;15.40;;;;;;;17.73;97.05;98922.88;5088874;28;20017;-65
2021/07/25 02:11:15;;;;;;;33.63;16.00;;;;;;;17.75;97.13;98875.78;5086581;28;20035;-65
2021/07/25 02:13:41;;;;;;;28.58;16.38;;;;;;;17.77;97.11;98706.16;5088760;28;21127;-65
2021/07/25 02:16:06;;;;;;;33.40;16.90;;;;;;;17.79;97.00;98726.47;5087563;28;20044;-65
2021/07/25 02:18:31;;;;;;;40.35;16.73;;;;;;;17.78;97.19;99243.09;5087634;28;20032;-65
2021/07/25 02:20:57;;;;;;;28.10;17.30;;;;;;;17.82;97.33;98674.88;5088568;28;20023;-65
2021/07/25 02:23:22;;;;;;;31.55;17.30;;;;;;;17.78;97.36;98695.44;5087419;28;20270;-65
2021/07/25 02:25:47;;;;;;;31.98;16.83;;;;;;;17.79;97.32;98717.59;5085057;28;20024;-65
2021/07/25 02:28:13;;;;;;;35.17;17.92;;;;;;;17.79;97.35;98683.00;5084993;28;20021;-65
2021/07/25 02:30:38;;;;;;;27.30;16.75;;;;;;;17.81;97.15;98694.44;5085179;28;20083;-65
2021/07/25 02:33:05;;;;;;;32.67;18.42;;;;;;;17.80;97.22;98692.69;5084868;28;20335;-65
2021/07/25 02:35:31;;;;;;;30.10;16.92;;;;;;;17.79;97.43;99404.59;5085095;28;20368;-65
2021/07/25 02:37:57;;;;;;;30.30;16.85;;;;;;;17.79;97.29;99300.75;5084702;28;20028;-65
2021/07/25 02:40:23;;;;;;;35.90;17.60;;;;;;;17.78;97.44;99008.78;5084765;28;20048;-65
2021/07/25 02:42:48;;;;;;;32.17;16.77;;;;;;;17.79;97.34;98938.59;5085830;28;20024;-65
2021/07/25 02:45:14;;;;;;;31.38;16.98;;;;;;;17.82;96.86;98946.47;5088128;28;20048;-65
2021/07/25 02:47:39;;;;;;;24.73;16.15;;;;;;;17.87;96.79;98933.81;5086942;28;20020;-65
2021/07/25 02:50:05;;;;;;;30.38;17.50;;;;;;;17.79;96.59;98872.03;5103761;28;20015;-65
2021/07/25 02:52:31;;;;;;;33.97;18.83;;;;;;;17.77;96.40;98866.78;5088019;28;20024;-65
2021/07/25 02:54:56;;;;;;;26.70;17.52;;;;;;;17.76;96.42;98914.78;5086776;28;20019;-65
2021/07/25 02:57:21;;;;;;;31.85;19.67;;;;;;;17.74;96.57;98820.78;5087055;28;20052;-65
2021/07/25 02:59:47;;;;;;;31.60;18.27;;;;;;;17.77;96.61;98841.94;5087686;28;20319;-65
2021/07/25 03:02:12;;;;;;;31.30;19.05;;;;;;;17.74;96.67;98791.50;5087962;28;20034;-65
2021/07/25 03:04:37;;;;;;;39.38;19.60;;;;;;;17.74;96.83;98826.09;5086610;28;20080;-65
2021/07/25 03:07:03;;;;;;;32.60;20.02;;;;;;;17.72;96.72;99328.53;5087963;28;20040;-65
2021/07/25 03:09:28;;;;;;;28.98;18.85;;;;;;;17.74;96.56;98866.03;5091406;28;20016;-65
2021/07/25 03:11:54;;;;;;;36.97;20.80;;;;;;;17.74;96.44;98847.41;5098721;28;20281;-65
2021/07/25 03:14:19;;;;;;;30.40;19.58;;;;;;;17.71;96.56;98836.88;5101266;28;20016;-65
2021/07/25 03:16:46;;;;;;;39.97;20.40;;;;;;;17.69;96.69;98855.63;5099566;28;20028;-65
2021/07/25 03:19:11;;;;;;;29.73;19.00;;;;;;;17.71;96.76;99246.91;5100870;28;20298;-65
2021/07/25 03:21:37;;;;;;;35.35;20.73;;;;;;;17.69;96.91;98797.06;5098958;28;20016;-65
2021/07/25 03:24:02;;;;;;;29.83;20.02;;;;;;;17.73;97.12;98866.97;5100836;28;20027;-65
2021/07/25 03:26:28;;;;;;;27.20;19.10;;;;;;;17.73;97.04;98712.56;5099449;28;20334;-65
2021/07/25 03:28:53;;;;;;;30.10;19.27;;;;;;;17.72;96.94;100223.31;5093085;28;20044;-65
2021/07/25 03:31:19;;;;;;;33.65;16.75;;;;;;;17.73;96.61;98941.53;5099476;28;20082;-65
2021/07/25 03:33:44;;;;;;;27.85;18.13;;;;;;;17.72;96.70;98945.13;5086193;28;20094;-65
2021/07/25 03:36:10;;;;;;;32.58;18.15;;;;;;;17.71;96.40;98970.00;5086315;28;20066;-65
2021/07/25 03:38:35;;;;;;;27.77;16.75;;;;;;;17.70;96.37;98854.69;5087336;28;20025;-65
2021/07/25 03:41:02;;;;;;;29.75;18.50;;;;;;;17.73;96.36;98686.81;5086262;28;20039;-65
2021/07/25 03:43:29;;;;;;;29.02;17.70;;;;;;;17.71;96.17;98996.63;5086493;28;20311;-65
2021/07/25 03:45:55;;;;;;;38.10;18.17;;;;;;;17.68;95.75;98906.25;5100830;28;20088;-65
2021/07/25 03:48:21;;;;;;;24.52;15.82;;;;;;;17.67;95.77;98808.69;5100833;28;20016;-65
2021/07/25 03:50:47;;;;;;;23.95;14.88;;;;;;;17.60;95.56;98809.88;5098160;28;21367;-65
2021/07/25 03:53:12;;;;;;;21.90;14.20;;;;;;;17.51;95.54;98828.91;5099146;28;20020;-65
2021/07/25 03:55:38;;;;;;;29.30;14.23;;;;;;;17.43;95.42;98889.63;5100745;28;20039;-65
2021/07/25 03:58:04;;;;;;;24.80;12.88;;;;;;;17.46;95.55;98783.03;5099697;28;20024;-65
2021/07/25 04:00:30;;;;;;;26.73;13.70;;;;;;;17.37;95.32;98767.44;5100137;28;20017;-65
2021/07/25 04:02:55;;;;;;;26.70;14.07;;;;;;;17.28;95.40;98780.19;5100683;28;20058;-65
2021/07/25 04:05:21;;;;;;;24.02;14.40;;;;;;;17.22;95.57;98695.34;5100492;28;20023;-65
2021/07/25 04:07:46;;;;;;;19.73;14.77;;;;;;;17.15;95.65;98687.72;5099317;28;20043;-65
2021/07/25 04:10:12;;;;;;;28.27;15.40;;;;;;;17.11;95.54;100905.84;5100624;28;20034;-65
2021/07/25 04:12:38;;;;;;;28.83;14.45;;;;;;;17.07;95.47;98954.03;5099748;28;20020;-65
2021/07/25 04:15:04;;;;;;;22.45;15.68;;;;;;;17.05;95.33;98921.28;5099847;28;20027;-65
2021/07/25 04:17:30;;;;;;;26.10;14.98;;;;;;;17.06;95.25;98970.88;5099675;28;20032;-65
2021/07/25 04:19:56;;;;;;;24.83;14.98;;;;;;;17.01;95.28;98935.66;5099859;28;20298;-65
2021/07/25 04:22:21;;;;;;;22.55;15.90;;;;;;;17.01;95.21;98999.47;5099030;28;20031;-65
2021/07/25 04:24:47;;;;;;;21.55;15.18;;;;;;;16.99;95.40;98942.81;5100426;28;20017;-65
2021/07/25 04:27:12;;;;;;;23.83;15.80;;;;;;;17.00;95.50;98907.31;5098967;28;20024;-65
2021/07/25 04:29:38;;;;;;;25.08;15.82;;;;;;;17.03;95.37;98709.53;5093905;28;20092;-65
2021/07/25 04:32:04;;;;;;;27.30;16.65;;;;;;;17.07;95.40;99211.16;5100086;28;20019;-65
2021/07/25 04:34:30;;;;;;;27.08;17.85;;;;;;;17.15;95.40;98946.59;5093768;28;20021;-65
2021/07/25 04:36:56;;;;;;;25.67;17.15;;;;;;;17.20;95.37;99090.94;5089461;28;20016;-65
2021/07/25 04:39:22;;;;;;;26.00;15.52;;;;;;;17.21;95.33;98937.47;5089380;28;20070;-65
2021/07/25 04:41:55;;;;;;;22.73;14.73;;;;;;;17.30;95.37;98946.91;5090573;28;20246;-65
2021/07/25 04:44:29;;;;;;;22.70;14.95;;;;;;;17.30;95.07;98893.69;5089421;28;20244;-65
2021/07/25 04:46:57;;;;;;;19.30;13.25;;;;;;;17.28;95.11;98902.59;5090574;28;20020;-65
2021/07/25 04:49:26;;;;;;;24.33;14.23;;;;;;;17.36;95.22;98893.41;5089280;28;20008;-65
2021/07/25 04:51:52;;;;;;;18.90;13.38;;;;;;;17.37;95.30;98874.72;5090419;28;20316;-65
2021/07/25 04:54:19;;;;;;;25.10;14.23;;;;;;;17.43;95.52;99006.72;5089190;28;20331;-65
2021/07/25 04:56:53;;;;;;;29.23;14.27;;;;;;;17.44;95.63;98848.75;5089938;28;20207;-65
2021/07/25 04:59:25;;;;;;;33.67;13.82;;;;;;;17.44;95.24;99221.34;5097273;28;20148;-65
2021/07/25 05:01:53;;;;;;;34.25;14.27;;;;;;;17.46;95.42;98916.09;5102140;28;20012;-65
2021/07/25 05:04:21;;;;;;;19.10;12.00;;;;;;;17.52;95.27;98923.81;5103622;28;20221;-65
2021/07/25 05:06:46;;;;;;;22.60;12.43;;;;;;;17.51;94.96;98860.84;5101846;28;20036;-65
2021/07/25 05:09:12;;;;;;;18.63;11.43;;;;;;;17.56;95.05;98864.19;5103636;28;20326;-65
2021/07/25 05:11:44;;;;;;;16.42;10.95;;;;;;;17.61;95.13;98912.75;5089676;28;20091;-65
2021/07/25 05:14:31;;;;;;;16.60;10.13;;;;;;;17.62;94.65;99055.59;5095606;28;20342;-65
2021/07/25 05:17:14;;;;;;;15.75;10.50;;;;;;;17.64;94.47;98932.13;5088849;28;20020;-65
2021/07/25 05:19:48;;;;;;;18.63;9.60;;;;;;;17.71;93.80;100732.94;5090048;28;20051;-65
2021/07/25 05:22:20;;;;;;;18.23;10.20;;;;;;;17.76;94.08;99303.53;5089898;28;20051;-65
2021/07/25 05:24:46;;;;;;;20.97;9.87;;;;;;;17.77;93.93;99086.91;5088655;28;20020;-65
2021/07/25 05:27:23;;;;;;;21.67;11.00;;;;;;;17.81;94.22;99052.09;5089788;28;20038;-65
2021/07/25 05:29:50;;;;;;;16.60;8.98;;;;;;;17.85;94.31;98964.97;5096587;28;20024;-65
2021/07/25 05:32:16;;;;;;;18.08;9.88;;;;;;;17.88;93.93;98899.09;5103178;28;20087;-65
2021/07/25 05:34:42;;;;;;;14.98;9.00;;;;;;;17.95;93.82;98803.84;5101463;28;20020;-65
2021/07/25 05:37:07;;;;;;;16.65;9.02;;;;;;;17.98;94.24;99411.88;5103047;28;20109;-65
2021/07/25 05:39:33;;;;;;;20.77;9.73;;;;;;;18.00;94.48;98951.00;5101308;28;20279;-65
2021/07/25 05:41:58;;;;;;;16.20;9.70;;;;;;;18.04;93.87;98889.53;5102972;28;20338;-65
2021/07/25 05:44:24;;;;;;;19.33;8.68;;;;;;;18.09;92.95;98860.84;5101310;28;20024;-65
2021/07/25 05:46:49;;;;;;;17.45;8.07;;;;;;;18.09;92.57;98812.03;5102615;28;20013;-65
2021/07/25 05:49:15;;;;;;;16.83;9.15;;;;;;;18.07;93.41;99080.31;5101140;28;20227;-65
2021/07/25 05:51:40;;;;;;;13.95;8.45;;;;;;;18.14;93.56;98954.78;5102263;28;20015;-65
2021/07/25 05:54:05;;;;;;;17.55;8.77;;;;;;;18.20;93.14;98908.34;5101639;28;20023;-65
2021/07/25 05:56:31;;;;;;;12.10;8.38;;;;;;;18.31;93.25;98938.00;5102205;28;20062;-65
2021/07/25 05:58:56;;;;;;;13.32;8.25;;;;;;;18.33;92.83;98878.41;5101459;28;20223;-65
2021/07/25 06:01:22;;;;;;;21.42;9.18;;;;;;;18.50;92.88;98840.31;5102577;28;20054;-65
2021/07/25 06:03:47;;;;;;;14.63;8.30;;;;;;;18.66;92.26;98801.28;5101209;28;20019;-65
2021/07/25 06:06:13;;;;;;;15.73;7.63;;;;;;;18.79;92.20;100061.41;5102130;28;20331;-65
2021/07/25 06:08:38;;;;;;;14.65;7.00;;;;;;;18.74;91.29;98951.13;5100810;28;20028;-65
2021/07/25 06:11:03;;;;;;;10.70;7.35;;;;;;;18.66;90.50;98974.59;5102374;28;20020;-65
2021/07/25 06:13:29;;;;;;;12.45;7.45;;;;;;;18.67;90.25;100886.94;5102170;28;20069;-65
2021/07/25 06:15:54;;;;;;;12.18;7.38;;;;;;;18.59;90.62;98658.56;5101766;28;20028;-65
2021/07/25 06:18:20;;;;;;;9.73;6.40;;;;;;;18.51;91.42;98570.16;5103194;28;20028;-65
2021/07/25 06:20:45;;;;;;;15.10;7.43;;;;;;;18.58;91.73;98575.06;5096471;28;20017;-65
2021/07/25 06:23:14;;;;;;;15.20;7.35;;;;;;;18.57;91.60;98580.50;5102138;28;20278;-65
2021/07/25 06:25:39;;;;;;;11.73;7.70;;;;;;;18.64;91.14;98577.41;5099229;28;20019;-65
2021/07/25 06:28:05;;;;;;;9.13;6.75;;;;;;;18.77;89.31;98577.66;5101140;28;20012;-65
2021/07/25 06:30:31;;;;;;;13.18;7.10;;;;;;;18.82;89.31;98629.78;5099875;28;20204;-65
2021/07/25 06:33:07;;;;;;;13.60;6.93;;;;;;;18.94;89.30;98598.94;5100940;28;20339;-65
2021/07/25 06:35:41;;;;;;;16.08;6.95;;;;;;;18.93;88.81;98647.91;5093369;28;20020;-65
2021/07/25 06:38:11;;;;;;;11.20;6.57;;;;;;;18.97;89.44;101045.69;5093892;28;20021;-65
2021/07/25 06:40:38;;;;;;;13.65;6.72;;;;;;;18.91;89.66;99151.25;5090677;28;20044;-65
2021/07/25 06:43:05;;;;;;;14.75;6.60;;;;;;;18.91;89.35;98929.84;5087342;28;20079;-65
2021/07/25 06:45:31;;;;;;;11.25;6.88;;;;;;;18.88;89.23;98892.66;5086144;28;20088;-65
2021/07/25 06:47:57;;;;;;;25.73;7.50;;;;;;;18.88;89.34;98873.97;5087249;28;20027;-65
2021/07/25 06:50:25;;;;;;;10.38;6.40;;;;;;;19.01;89.49;98757.72;5086272;28;20311;-65
2021/07/25 06:52:52;;;;;;;12.98;6.80;;;;;;;19.05;88.07;99853.34;5086759;28;20092;-65
2021/07/25 06:55:23;;;;;;;10.35;6.07;;;;;;;19.03;88.54;98799.41;5085920;28;20024;-65
2021/07/25 06:57:49;;;;;;;15.18;6.47;;;;;;;18.98;89.44;98800.56;5091092;28;20016;-65
2021/07/25 07:00:15;;;;;;;9.73;5.85;;;;;;;19.09;88.65;98768.88;5085906;28;20319;-65
2021/07/25 07:02:53;;;;;;;14.75;6.13;;;;;;;18.98;88.17;98732.06;5086998;28;20021;-65
2021/07/25 07:05:21;;;;;;;14.15;6.50;;;;;;;19.13;88.82;98725.06;5093687;28;20035;-65
2021/07/25 07:07:48;;;;;;;8.45;5.68;;;;;;;19.37;87.45;98894.69;5085775;28;20016;-65
2021/07/25 07:10:18;;;;;;;12.60;6.13;;;;;;;19.74;85.59;98915.88;5086561;28;20219;-65
2021/07/25 07:12:45;;;;;;;10.05;5.60;;;;;;;20.05;84.54;98870.56;5092678;28;20027;-65
2021/07/25 07:15:12;;;;;;;9.73;5.72;;;;;;;20.01;83.84;98770.16;5098390;28;20034;-65
2021/07/25 07:17:39;;;;;;;16.50;5.20;;;;;;;20.11;82.69;98937.06;5098158;28;20027;-65
2021/07/25 07:20:10;;;;;;;9.15;5.47;;;;;;;20.05;82.98;99097.72;5085681;28;20021;-65
2021/07/25 07:22:36;;;;;;;11.43;5.35;;;;;;;20.28;84.61;98818.59;5093940;28;20342;-65
2021/07/25 07:25:04;;;;;;;11.55;5.00;;;;;;;20.79;79.40;98829.88;5099396;28;20020;-65
2021/07/25 07:27:29;;;;;;;9.35;4.70;;;;;;;20.80;80.29;98778.09;5099566;28;20068;-65
2021/07/25 07:29:55;;;;;;;12.15;5.18;;;;;;;20.78;81.41;98731.84;5099775;28;20020;-65
2021/07/25 07:32:21;;;;;;;8.02;4.80;;;;;;;20.87;81.68;98065.13;5098777;28;20068;-65
2021/07/25 07:34:46;;;;;;;13.88;5.22;;;;;;;20.83;81.00;98649.50;5098414;28;20032;-65
2021/07/25 07:37:12;;;;;;;8.65;4.80;;;;;;;21.01;79.26;98827.72;5100018;28;20016;-65
2021/07/25 07:39:39;;;;;;;9.75;4.78;;;;;;;21.03;79.23;98657.22;5098066;28;20071;-65
2021/07/25 07:42:06;;;;;;;8.18;4.53;;;;;;;21.02;80.22;98606.47;5096060;28;20020;-65
2021/07/25 07:44:32;;;;;;;11.57;4.57;;;;;;;20.87;78.29;98610.91;5093666;28;20390;-65
2021/07/25 07:46:58;;;;;;;9.77;4.63;;;;;;;20.88;77.36;98508.25;5089212;28;20020;-65
2021/07/25 07:49:23;;;;;;;8.20;3.88;;;;;;;21.24;77.73;98476.50;5087634;28;20385;-65
2021/07/25 07:51:48;;;;;;;8.75;4.50;;;;;;;22.39;72.25;99276.97;5086090;28;20019;-65
2021/07/25 07:54:14;;;;;;;6.88;4.15;;;;;;;23.41;69.42;98893.88;5101123;28;20343;-65
2021/07/25 07:56:39;;;;;;;6.63;4.05;;;;;;;24.79;64.06;98744.09;5087573;28;20031;-65
2021/07/25 07:59:05;;;;;;;12.65;4.65;;;;;;;25.16;63.62;98736.78;5090515;28;20266;-65
2021/07/25 08:01:30;;;;;;;14.40;4.05;;;;;;;25.46;63.32;98745.22;5084485;28;20027;-65
2021/07/25 08:03:55;;;;;;;6.90;3.80;;;;;;;25.30;64.77;99291.72;5083915;28;20278;-65
2021/07/25 08:06:21;;;;;;;9.70;3.72;;;;;;;24.69;67.00;98907.31;5083857;28;20028;-65
2021/07/25 08:08:46;;;;;;;8.80;3.85;;;;;;;24.13;67.66;98872.75;5088248;28;20000;-65
2021/07/25 08:11:12;;;;;;;6.80;3.90;;;;;;;24.02;65.96;98786.59;5094971;28;20020;-65
2021/07/25 08:13:37;;;;;;;8.90;4.32;;;;;;;24.21;66.82;98794.22;5092574;28;20051;-65
2021/07/25 08:16:03;;;;;;;10.18;4.45;;;;;;;25.68;62.07;98776.75;5099141;28;20082;-65
2021/07/25 08:18:28;;;;;;;8.15;3.83;;;;;;;26.77;58.71;99056.00;5093961;28;20329;-65
2021/07/25 08:20:54;;;;;;;6.85;3.30;;;;;;;26.65;59.25;98663.53;5093895;28;20016;-65
2021/07/25 08:23:19;;;;;;;9.43;3.60;;;;;;;25.88;61.09;98557.63;5097069;28;20024;-65
2021/07/25 08:25:45;;;;;;;9.02;3.60;;;;;;;24.46;66.28;100832.72;5102905;28;20083;-65
2021/07/25 08:28:10;;;;;;;7.50;3.50;;;;;;;25.33;66.24;98857.66;5101285;28;20016;-65
2021/07/25 08:30:36;;;;;;;10.02;3.95;;;;;;;25.90;62.28;98750.69;5100457;28;20289;-65
2021/07/25 08:33:02;;;;;;;10.45;3.80;;;;;;;25.68;62.09;98679.69;5098461;28;20011;-65
2021/07/25 08:35:27;;;;;;;6.32;3.55;;;;;;;25.37;64.70;99491.66;5093038;28;20070;-65
2021/07/25 08:37:53;;;;;;;7.28;3.72;;;;;;;25.15;66.05;98520.41;5097002;28;20017;-65
2021/07/25 08:40:21;;;;;;;7.13;4.05;;;;;;;24.73;65.28;98609.97;5095071;28;20020;-65
2021/07/25 08:43:04;;;;;;;7.68;3.83;;;;;;;26.33;60.96;98489.03;5090826;28;20020;-65
2021/07/25 08:45:34;;;;;;;7.47;3.65;;;;;;;27.03;59.11;98436.91;5092512;28;20031;-65
2021/07/25 08:48:16;;;;;;;8.95;3.38;;;;;;;27.72;55.60;98959.88;5098975;28;20016;-65
2021/07/25 08:50:44;;;;;;;7.03;3.00;;;;;;;27.49;56.31;98666.16;5095064;28;20330;-65
2021/07/25 08:53:16;;;;;;;6.38;3.28;;;;;;;26.29;60.31;98573.97;5099358;28;20016;-65
2021/07/25 08:55:42;;;;;;;;;;;;;;;26.14;59.72;98532.94;5101525;28;20212;-65
2021/07/25 08:58:10;;;;;;;5.75;3.38;;;;;;;25.52;62.98;98509.38;5097969;28;19908;-65
2021/07/25 09:00:36;;;;;;;7.05;3.58;;;;;;;26.16;61.81;98493.16;5095782;28;20020;-65
2021/07/25 09:03:07;;;;;;;9.65;3.50;;;;;;;27.64;58.40;98512.50;5099109;28;20027;-65
2021/07/25 09:05:33;;;;;;;6.82;3.00;;;;;;;28.57;53.50;99159.31;5100936;28;20390;-65
2021/07/25 09:08:01;;;;;;;6.00;3.00;;;;;;;29.09;49.67;98755.38;5091343;28;20013;-65
2021/07/25 09:10:27;;;;;;;7.25;2.97;;;;;;;29.13;47.89;98695.31;5089448;28;20239;-65
2021/07/25 09:12:55;;;;;;;8.27;3.10;;;;;;;29.03;49.36;98626.72;5091112;28;20084;-66
2021/07/25 09:15:32;;;;;;;7.07;3.15;;;;;;;29.39;48.23;98621.50;5097458;28;20016;-66
2021/07/25 09:18:00;;;;;;;11.05;3.67;;;;;;;29.21;47.51;98561.75;5094456;28;20196;-66
2021/07/25 09:20:40;;;;;;;7.75;3.22;;;;;;;28.79;50.93;98553.09;5092264;28;20276;-66
2021/07/25 09:23:10;;;;;;;9.15;3.40;;;;;;;29.50;48.83;98659.28;5093769;28;20028;-66
2021/07/25 09:25:55;;;;;;;9.32;3.25;;;;;;;29.54;47.39;98634.44;5088547;28;20090;-66
2021/07/25 09:28:24;;;;;;;6.28;3.20;;;;;;;30.17;46.30;98977.59;5096908;28;20023;-66
2021/07/25 09:30:51;;;;;;;6.75;3.15;;;;;;;30.30;46.35;98703.88;5088935;28;20207;-66
2021/07/25 09:33:32;;;;;;;6.95;2.95;;;;;;;29.09;46.73;98604.44;5089948;28;20079;-66
2021/07/25 09:36:01;;;;;;;9.18;3.30;;;;;;;29.04;49.53;98552.53;5093428;28;20048;-66
2021/07/25 09:38:28;;;;;;;6.50;3.03;;;;;;;28.80;50.73;98510.63;5098162;28;20020;-66
2021/07/25 09:40:54;;;;;;;4.25;2.55;;;;;;;28.10;52.65;98510.94;5100464;28;20188;-66
2021/07/25 09:43:25;;;;;;;7.88;3.03;;;;;;;28.51;49.08;98543.16;5100480;28;20024;-66
2021/07/25 09:45:50;;;;;;;7.95;3.15;;;;;;;28.81;49.93;98505.06;5095189;28;20039;-66
2021/07/25 09:48:22;;;;;;;8.00;2.75;;;;;;;27.54;52.38;98608.97;5087323;28;20311;-66
2021/07/25 09:50:49;;;;;;;6.35;2.65;;;;;;;27.02;53.15;98562.16;5100554;28;20020;-66
2021/07/25 09:53:15;;;;;;;5.63;2.90;;;;;;;26.94;57.52;98539.50;5097835;28;20024;-66
2021/07/25 09:55:41;;;;;;;9.48;3.30;;;;;;;26.23;59.62;98482.72;5087820;28;20024;-66
2021/07/25 09:58:09;;;;;;;6.60;3.08;;;;;;;25.78;58.47;98497.34;5093775;28;20032;-66
2021/07/25 10:00:42;;;;;;;10.45;3.40;;;;;;;24.93;61.77;98455.78;5097839;28;20024;-66
2021/07/25 10:03:32;;;;;;;6.22;2.97;;;;;;;25.00;60.88;98432.75;5088319;28;20023;-66
2021/07/25 10:05:57;;;;;;;8.02;3.35;;;;;;;25.82;58.75;98444.84;5098282;28;20086;-66
2021/07/25 10:08:23;;;;;;;5.25;2.67;;;;;;;26.65;56.94;98452.94;5099511;28;20024;-66
2021/07/25 10:10:51;;;;;;;7.75;3.15;;;;;;;27.47;57.71;98461.81;5087569;28;20019;-66
2021/07/25 10:13:18;;;;;;;7.28;2.95;;;;;;;28.03;53.20;98563.88;5087939;28;20027;-66
2021/07/25 10:16:04;;;;;;;4.13;2.38;;;;;;;28.33;51.70;98534.00;5092537;28;20119;-66
2021/07/25 10:18:32;;;;;;;8.90;2.78;;;;;;;28.33;55.81;100042.38;5092270;28;20354;-66
2021/07/25 10:20:59;;;;;;;8.13;2.80;;;;;;;28.21;52.24;98642.56;5100096;28;20008;-66
2021/07/25 10:23:32;;;;;;;9.27;3.22;;;;;;;27.62;51.98;98553.22;5094267;28;20065;-66
2021/07/25 10:26:01;;;;;;;8.75;3.13;;;;;;;27.74;56.10;98557.53;5101216;28;20055;-66
2021/07/25 10:28:29;;;;;;;8.82;3.05;;;;;;;28.65;49.40;98485.84;5097066;28;20019;-66
2021/07/25 10:30:55;;;;;;;6.32;2.65;;;;;;;29.04;48.17;98441.38;5087677;28;20040;-66
2021/07/25 10:33:21;;;;;;;7.15;2.60;;;;;;;28.91;48.31;98443.56;5087577;28;20021;-66
2021/07/25 10:35:47;;;;;;;7.43;2.53;;;;;;;29.18;47.62;98437.34;5099179;28;20318;-66
2021/07/25 10:38:14;;;;;;;7.93;3.17;;;;;;;28.97;45.73;98415.00;5087430;28;20023;-66
2021/07/25 10:40:40;;;;;;;7.35;2.63;;;;;;;29.66;46.92;98423.50;5086323;28;20365;-66
2021/07/25 10:43:08;;;;;;;6.30;2.42;;;;;;;29.23;46.20;98378.94;5086893;28;20027;-66
2021/07/25 10:45:35;;;;;;;8.27;2.30;;;;;;;29.29;44.97;98382.91;5086125;28;20012;-66
2021/07/25 10:48:16;;;;;;;7.32;2.60;;;;;;;29.02;45.85;98370.19;5086043;28;20112;-66
2021/07/25 10:50:42;;;;;;;4.30;2.30;;;;;;;28.53;47.51;98335.34;5097032;28;20043;-66
2021/07/25 10:53:21;;;;;;;4.38;2.25;;;;;;;29.19;47.03;98336.88;5099408;28;20279;-66
2021/07/25 10:55:47;;;;;;;6.25;2.10;;;;;;;29.64;47.29;98333.31;5100733;28;20211;-66
2021/07/25 10:58:17;;;;;;;5.00;2.40;;;;;;;28.66;47.30;98295.22;5085841;28;20023;-66
2021/07/25 11:00:42;;;;;;;6.10;2.63;;;;;;;28.41;48.19;98290.44;5083084;28;20020;-66
2021/07/25 11:03:08;;;;;;;5.38;2.20;;;;;;;27.75;51.32;98277.97;5086429;28;20039;-66
2021/07/25 11:06:02;;;;;;;5.43;2.38;;;;;;;27.01;50.52;98263.28;5103529;28;20047;-66
2021/07/25 11:08:36;;;;;;;6.07;2.63;;;;;;;26.57;50.43;98254.75;5103543;28;20024;-67
2021/07/25 11:11:34;;;;;;;4.90;2.33;;;;;;;26.86;51.99;98245.75;5103703;28;20024;-67
2021/07/25 11:14:02;;;;;;;3.50;2.13;;;;;;;28.10;53.45;98278.19;5103255;28;20024;-67
2021/07/25 11:16:28;;;;;;;5.55;2.58;;;;;;;27.11;54.02;98238.94;5095127;28;20020;-66
2021/07/25 11:18:54;;;;;;;5.82;2.38;;;;;;;26.78;53.24;98228.53;5098327;28;20043;-66
2021/07/25 11:21:44;;;;;;;9.73;2.53;;;;;;;26.83;51.26;98223.59;5087175;28;20130;-66
2021/07/25 11:24:26;;;;;;;8.30;2.20;;;;;;;27.00;55.36;98225.59;5096915;28;20012;-66
2021/07/25 11:26:56;;;;;;;;;;;;;;;27.57;51.65;99799.63;5097002;28;20027;-66
2021/07/25 11:29:22;;;;;;;6.00;2.20;;;;;;;27.85;52.09;98829.81;5096976;28;19904;-66